Time;durP1;ratioP1;P1;durP2;ratioP2;P2;SDS_P1;SDS_P2;PMS_P1;PMS_P2;Temp;Humidity;BMP_temperature;BMP_pressure;BME280_temperature;BME280_humidity;BME280_pressure;Samples;Min_cycle;Max_cycle;Signal;HPM_P1;HPM_P2
2021/05/31 00:01:59;;;;;;;7.32;4.80;;;19.30;57.00;;;;;;6134119;23;20228;-82
2021/05/31 00:04:25;;;;;;;7.95;4.93;;;19.30;57.10;;;;;;6129544;23;20153;-82
2021/05/31 00:07:03;;;;;;;6.78;4.60;;;19.20;57.00;;;;;;6154713;23;20146;-82
2021/05/31 00:09:29;;;;;;;6.65;4.90;;;19.30;57.00;;;;;;6181100;23;20130;-82
2021/05/31 00:11:56;;;;;;;5.97;4.57;;;19.20;56.90;;;;;;6207559;23;20145;-82
2021/05/31 00:14:22;;;;;;;9.15;5.05;;;19.20;56.90;;;;;;6182900;23;20126;-83
2021/05/31 00:16:48;;;;;;;7.60;4.70;;;19.20;57.00;;;;;;6183903;23;20134;-83
2021/05/31 00:19:14;;;;;;;8.30;5.20;;;19.20;56.80;;;;;;6158180;23;20152;-82
2021/05/31 00:21:45;;;;;;;5.65;4.22;;;19.20;56.90;;;;;;6158590;23;20592;-83
2021/05/31 00:24:13;;;;;;;7.53;4.53;;;19.20;56.80;;;;;;6182861;23;20142;-85
2021/05/31 00:26:41;;;;;;;6.65;4.38;;;19.20;56.80;;;;;;6158039;23;20220;-82
2021/05/31 00:29:09;;;;;;;6.88;4.68;;;19.20;56.80;;;;;;6132457;23;20150;-83
2021/05/31 00:31:39;;;;;;;7.25;4.70;;;19.20;56.90;;;;;;6132577;23;20157;-82
2021/05/31 00:34:14;;;;;;;5.63;4.38;;;19.20;56.80;;;;;;6131298;23;20586;-83
2021/05/31 00:36:44;;;;;;;5.07;4.38;;;19.20;56.90;;;;;;6157196;23;20148;-82
2021/05/31 00:39:10;;;;;;;6.88;4.88;;;19.30;56.90;;;;;;6156375;23;20201;-85
2021/05/31 00:41:44;;;;;;;5.72;4.30;;;19.30;57.00;;;;;;6157878;23;20218;-82
2021/05/31 00:44:11;;;;;;;7.72;4.90;;;19.20;56.80;;;;;;6135657;23;20192;-82
2021/05/31 00:46:37;;;;;;;6.45;4.60;;;19.20;56.80;;;;;;6157746;23;20200;-82
2021/05/31 00:49:07;;;;;;;6.57;4.88;;;19.20;56.90;;;;;;6157542;23;20181;-82
2021/05/31 00:51:35;;;;;;;7.30;5.00;;;19.20;57.00;;;;;;6206874;23;20130;-82
2021/05/31 00:54:01;;;;;;;7.07;4.55;;;19.20;57.10;;;;;;6158884;23;20158;-82
2021/05/31 00:56:26;;;;;;;5.38;4.30;;;19.20;57.10;;;;;;6183023;23;20142;-83
2021/05/31 00:58:52;;;;;;;7.63;4.47;;;19.20;57.00;;;;;;6157729;23;20174;-83
2021/05/31 01:01:21;;;;;;;5.75;4.65;;;19.20;57.00;;;;;;6158929;23;20146;-82
2021/05/31 01:03:47;;;;;;;5.53;4.30;;;19.20;57.00;;;;;;6182124;23;20141;-82
2021/05/31 01:06:17;;;;;;;6.65;4.60;;;19.20;56.90;;;;;;6182851;23;20153;-83
2021/05/31 01:08:55;;;;;;;5.72;4.53;;;19.20;56.90;;;;;;6159226;23;20149;-82
2021/05/31 01:11:34;;;;;;;6.03;4.55;;;19.20;57.00;;;;;;6207808;23;20142;-83
2021/05/31 01:14:16;;;;;;;5.45;4.55;;;19.20;57.00;;;;;;6210010;23;20206;-83
2021/05/31 01:16:52;;;;;;;6.15;4.40;;;19.20;57.00;;;;;;6159607;23;20142;-82
2021/05/31 01:19:51;;;;;;;5.72;4.60;;;19.20;57.00;;;;;;6183925;23;20138;-83
2021/05/31 01:22:20;;;;;;;7.07;4.55;;;19.20;57.00;;;;;;6206513;23;20209;-82
2021/05/31 01:25:15;;;;;;;5.60;4.75;;;19.20;57.00;;;;;;6156844;23;20195;-83
2021/05/31 01:27:54;;;;;;;5.82;4.47;;;19.20;57.00;;;;;;6232304;23;20134;-83
2021/05/31 01:30:25;;;;;;;6.47;4.63;;;19.10;57.00;;;;;;6183194;23;20130;-83
2021/05/31 01:32:54;;;;;;;6.28;4.38;;;19.10;57.00;;;;;;6180980;23;20205;-83
2021/05/31 01:35:24;;;;;;;6.30;4.70;;;19.20;57.00;;;;;;6180567;23;20149;-83
2021/05/31 01:37:50;;;;;;;6.35;4.68;;;19.20;57.00;;;;;;6181140;23;20253;-82
2021/05/31 01:40:17;;;;;;;6.07;4.50;;;19.20;57.00;;;;;;6179839;23;20193;-83
2021/05/31 01:42:43;;;;;;;5.68;4.75;;;19.20;57.00;;;;;;6156220;23;20467;-83
2021/05/31 01:45:12;;;;;;;5.95;4.60;;;19.20;57.10;;;;;;6180633;23;20138;-83
2021/05/31 01:47:39;;;;;;;6.80;4.68;;;19.10;57.10;;;;;;6180721;23;20158;-83
2021/05/31 01:50:11;;;;;;;5.72;4.53;;;19.10;57.00;;;;;;6130512;23;20157;-83
2021/05/31 01:52:47;;;;;;;7.55;4.47;;;19.10;57.00;;;;;;6179792;23;20153;-82
2021/05/31 01:55:18;;;;;;;7.75;4.55;;;19.10;57.80;;;;;;6155216;23;20146;-83
2021/05/31 01:57:48;;;;;;;8.00;4.53;;;19.10;56.40;;;;;;6155225;23;20205;-83
2021/05/31 02:00:16;;;;;;;7.25;5.00;;;19.10;57.00;;;;;;6155209;23;20285;-83
2021/05/31 02:02:43;;;;;;;9.32;5.00;;;19.10;57.10;;;;;;6154743;23;20153;-82
2021/05/31 02:05:15;;;;;;;7.80;4.57;;;19.10;57.00;;;;;;6129584;23;20150;-83
2021/05/31 02:07:45;;;;;;;6.85;4.72;;;19.20;57.10;;;;;;6155861;23;20637;-84
2021/05/31 02:10:12;;;;;;;7.68;4.90;;;19.10;57.10;;;;;;6130064;23;20161;-83
2021/05/31 02:12:49;;;;;;;5.53;4.63;;;19.10;57.10;;;;;;6180670;23;20158;-83
2021/05/31 02:15:24;;;;;;;8.57;4.88;;;19.10;57.10;;;;;;6156463;23;20154;-83
2021/05/31 02:18:07;;;;;;;5.47;4.55;;;19.10;57.10;;;;;;6157403;23;20177;-83
2021/05/31 02:20:35;;;;;;;6.40;4.60;;;19.10;57.10;;;;;;6207472;23;20130;-82
2021/05/31 02:23:02;;;;;;;4.95;4.35;;;19.10;57.20;;;;;;6156144;23;20522;-82
2021/05/31 02:25:28;;;;;;;6.32;4.60;;;19.10;57.10;;;;;;6180687;23;20141;-83
2021/05/31 02:27:54;;;;;;;6.43;4.60;;;19.10;57.10;;;;;;6155820;23;20549;-82
2021/05/31 02:30:22;;;;;;;6.65;4.75;;;19.10;57.10;;;;;;6180784;23;20126;-83
2021/05/31 02:32:51;;;;;;;5.75;4.50;;;19.10;57.10;;;;;;6179542;23;20142;-83
2021/05/31 02:35:20;;;;;;;7.15;4.57;;;19.00;57.10;;;;;;6180562;23;20127;-83
2021/05/31 02:37:50;;;;;;;7.10;4.90;;;19.10;57.20;;;;;;6129602;23;20181;-83
2021/05/31 02:40:18;;;;;;;6.70;4.93;;;19.00;57.10;;;;;;6120305;23;20264;-82
2021/05/31 02:42:51;;;;;;;6.00;4.60;;;19.10;57.10;;;;;;6146015;23;20154;-83
2021/05/31 02:45:18;;;;;;;5.78;4.45;;;19.10;57.10;;;;;;6145881;23;20195;-83
2021/05/31 02:47:49;;;;;;;6.35;4.43;;;19.10;57.20;;;;;;6170707;23;20131;-83
2021/05/31 02:50:17;;;;;;;7.40;4.65;;;19.10;57.20;;;;;;6119987;23;20151;-83
2021/05/31 02:52:45;;;;;;;7.07;4.60;;;19.00;57.20;;;;;;6120555;23;20151;-84
2021/05/31 02:55:15;;;;;;;6.95;5.22;;;19.00;57.20;;;;;;6120202;23;20158;-82
2021/05/31 02:57:41;;;;;;;5.60;4.80;;;19.10;57.30;;;;;;6144513;23;20191;-83
2021/05/31 03:00:08;;;;;;;7.35;4.97;;;19.00;57.20;;;;;;6169864;23;20138;-82
2021/05/31 03:02:38;;;;;;;5.82;4.63;;;19.10;57.30;;;;;;6145512;23;20132;-83
2021/05/31 03:05:05;;;;;;;5.80;4.55;;;19.00;57.30;;;;;;6145377;23;20136;-82
2021/05/31 03:07:32;;;;;;;6.60;4.78;;;19.10;57.30;;;;;;6145761;23;20148;-82
2021/05/31 03:10:00;;;;;;;8.07;4.70;;;19.00;57.30;;;;;;6145318;23;20139;-83
2021/05/31 03:12:30;;;;;;;7.30;4.50;;;19.00;57.40;;;;;;6145294;23;20144;-83
2021/05/31 03:15:05;;;;;;;6.50;4.45;;;19.00;57.40;;;;;;6120266;23;20227;-82
2021/05/31 03:17:33;;;;;;;7.63;4.78;;;19.00;57.40;;;;;;6143940;23;20182;-82
2021/05/31 03:19:59;;;;;;;6.05;4.93;;;19.00;57.50;;;;;;6119963;23;20158;-82
2021/05/31 03:22:25;;;;;;;5.47;4.50;;;18.90;57.40;;;;;;6145168;23;20159;-83
2021/05/31 03:24:51;;;;;;;7.10;4.93;;;19.00;57.40;;;;;;6144868;23;20140;-83
2021/05/31 03:27:20;;;;;;;5.78;4.38;;;18.90;57.50;;;;;;6145495;23;20212;-83
2021/05/31 03:29:48;;;;;;;8.43;4.78;;;19.00;57.40;;;;;;6169830;23;20135;-82
2021/05/31 03:32:14;;;;;;;6.88;4.70;;;19.00;58.10;;;;;;6145145;23;20194;-83
2021/05/31 03:34:44;;;;;;;5.78;4.90;;;18.90;57.40;;;;;;6169734;23;20136;-83
2021/05/31 03:37:14;;;;;;;5.45;4.38;;;19.00;57.40;;;;;;6119544;23;20198;-82
2021/05/31 03:39:41;;;;;;;5.63;4.50;;;19.00;57.40;;;;;;6148250;23;20195;-82
2021/05/31 03:42:14;;;;;;;5.88;4.55;;;18.90;57.40;;;;;;6100413;23;20579;-83
2021/05/31 03:44:42;;;;;;;5.55;4.30;;;19.00;57.40;;;;;;6148237;23;20185;-83
2021/05/31 03:47:08;;;;;;;5.47;4.45;;;19.00;57.40;;;;;;6149796;23;20146;-83
2021/05/31 03:49:35;;;;;;;4.85;3.97;;;19.00;57.40;;;;;;6150640;23;20158;-83
2021/05/31 03:52:05;;;;;;;5.43;4.50;;;19.00;57.30;;;;;;6100545;23;20159;-83
2021/05/31 03:54:31;;;;;;;6.53;4.80;;;19.00;57.40;;;;;;6125517;23;20161;-83
2021/05/31 03:56:58;;;;;;;6.15;4.50;;;19.00;57.50;;;;;;6150327;23;20139;-82
2021/05/31 03:59:25;;;;;;;6.28;4.38;;;18.90;57.40;;;;;;6174675;23;20142;-83
2021/05/31 04:01:57;;;;;;;5.35;4.45;;;18.90;57.40;;;;;;6125693;23;20147;-83
2021/05/31 04:04:24;;;;;;;5.53;4.35;;;19.00;57.40;;;;;;6076817;23;20146;-83
2021/05/31 04:07:23;;;;;;;6.63;4.43;;;19.00;57.40;;;;;;6150161;23;20203;-83
2021/05/31 04:12:22;;;;;;;6.60;4.65;;;19.10;56.80;;;;;;6133020;23;20206;-83
2021/05/31 04:14:57;;;;;;;7.10;4.47;;;19.10;56.60;;;;;;6150000;23;20194;-82
2021/05/31 04:17:24;;;;;;;6.68;4.60;;;19.10;56.60;;;;;;6123902;23;20197;-83
2021/05/31 04:19:51;;;;;;;5.53;4.20;;;19.10;56.60;;;;;;6150082;23;20150;-83
2021/05/31 04:22:21;;;;;;;6.43;4.78;;;19.10;56.30;;;;;;6149425;23;20230;-82
2021/05/31 04:24:52;;;;;;;5.53;4.78;;;19.10;56.60;;;;;;6100353;23;20162;-83
2021/05/31 04:27:19;;;;;;;7.03;4.82;;;19.10;56.30;;;;;;6125345;23;20157;-83
2021/05/31 04:29:50;;;;;;;5.82;4.47;;;19.10;56.50;;;;;;6149797;23;20157;-83
2021/05/31 04:32:17;;;;;;;6.20;4.40;;;19.10;56.20;;;;;;6077058;23;20147;-83
2021/05/31 04:34:48;;;;;;;4.90;4.38;;;19.10;56.10;;;;;;6149147;23;20154;-83
2021/05/31 04:37:19;;;;;;;8.13;4.55;;;19.10;56.40;;;;;;6100754;23;20186;-82
2021/05/31 04:39:45;;;;;;;5.22;4.43;;;19.10;56.10;;;;;;6143421;23;20207;-83
2021/05/31 04:42:11;;;;;;;6.53;4.68;;;19.10;56.30;;;;;;6144004;23;20146;-84
2021/05/31 04:44:37;;;;;;;5.95;4.50;;;19.10;56.00;;;;;;6120029;23;20160;-82
2021/05/31 04:47:03;;;;;;;5.18;4.35;;;19.10;56.10;;;;;;6143468;23;20139;-82
2021/05/31 04:49:32;;;;;;;6.18;4.47;;;19.10;55.80;;;;;;6120223;23;20144;-82
2021/05/31 04:51:58;;;;;;;6.25;4.38;;;19.10;56.00;;;;;;6145297;23;20132;-82
2021/05/31 04:54:31;;;;;;;6.03;4.32;;;19.10;56.00;;;;;;6144574;23;20138;-83
2021/05/31 04:57:02;;;;;;;6.03;4.63;;;19.10;55.80;;;;;;6120882;23;20152;-83
2021/05/31 04:59:32;;;;;;;6.40;4.55;;;19.20;56.30;;;;;;6145526;23;20183;-83
2021/05/31 05:01:58;;;;;;;5.38;4.25;;;19.20;55.50;;;;;;6121440;23;20160;-83
2021/05/31 05:04:24;;;;;;;5.03;4.38;;;19.20;55.30;;;;;;6146742;23;20138;-83
2021/05/31 05:06:50;;;;;;;6.80;4.28;;;19.20;55.70;;;;;;6122282;23;20131;-82
2021/05/31 05:09:21;;;;;;;7.63;4.53;;;19.20;55.60;;;;;;6121405;23;20188;-83
2021/05/31 05:11:50;;;;;;;6.32;3.95;;;19.20;55.30;;;;;;6097319;23;20151;-83
2021/05/31 05:14:20;;;;;;;5.32;4.43;;;19.20;55.70;;;;;;6072759;23;20183;-82
2021/05/31 05:16:53;;;;;;;5.38;4.20;;;19.10;55.40;;;;;;6072671;23;20195;-83
2021/05/31 05:19:19;;;;;;;7.53;4.70;;;19.20;55.80;;;;;;6120467;23;20174;-82
2021/05/31 05:21:50;;;;;;;5.07;4.10;;;19.10;55.90;;;;;;6121826;23;20143;-82
2021/05/31 05:24:16;;;;;;;6.43;4.70;;;19.20;55.60;;;;;;6049377;23;20206;-82
2021/05/31 05:26:47;;;;;;;6.07;4.43;;;19.10;55.80;;;;;;6131256;23;20568;-82
2021/05/31 05:29:14;;;;;;;4.90;4.18;;;19.20;55.30;;;;;;6097570;23;20162;-83
2021/05/31 05:31:44;;;;;;;5.22;4.20;;;19.20;56.30;;;;;;6121505;23;20155;-83
2021/05/31 05:34:15;;;;;;;5.97;4.20;;;19.10;55.70;;;;;;6094485;23;20217;-83
2021/05/31 05:36:53;;;;;;;6.65;4.70;;;19.20;55.70;;;;;;6096276;23;20158;-82
2021/05/31 05:49:53;;;;;;;6.15;4.00;;;19.20;55.30;;;;;;6138140;23;20476;-82
2021/05/31 05:52:24;;;;;;;4.93;4.22;;;19.30;55.50;;;;;;6151492;23;20198;-82
2021/05/31 05:54:54;;;;;;;5.63;4.35;;;19.30;54.60;;;;;;6100697;23;20182;-82
2021/05/31 05:57:20;;;;;;;6.38;4.47;;;19.40;54.70;;;;;;6077314;23;20233;-82
2021/05/31 05:59:49;;;;;;;4.15;3.72;;;19.40;55.50;;;;;;6175320;23;20206;-82
2021/05/31 06:02:15;;;;;;;5.53;4.13;;;19.40;54.50;;;;;;6126468;23;20157;-82
2021/05/31 06:04:41;;;;;;;5.07;4.00;;;19.30;54.40;;;;;;6150411;23;20139;-81
2021/05/31 06:07:09;;;;;;;5.00;4.00;;;19.40;54.50;;;;;;6151101;23;20131;-81
2021/05/31 06:09:36;;;;;;;5.47;4.28;;;19.40;54.70;;;;;;6175306;23;20135;-81
2021/05/31 06:12:02;;;;;;;4.80;4.15;;;19.40;54.50;;;;;;6150259;23;20158;-82
2021/05/31 06:14:27;;;;;;;7.05;4.25;;;19.30;54.40;;;;;;6150366;23;20185;-82
2021/05/31 06:16:53;;;;;;;4.65;3.70;;;19.30;54.50;;;;;;6126722;23;20154;-82
2021/05/31 06:19:28;;;;;;;4.95;4.13;;;19.40;54.10;;;;;;6151254;23;20470;-81
2021/05/31 06:21:54;;;;;;;5.43;4.20;;;19.40;54.20;;;;;;6151067;23;20590;-81
2021/05/31 06:24:20;;;;;;;6.30;4.20;;;19.30;54.20;;;;;;6175316;23;20131;-82
2021/05/31 06:26:46;;;;;;;5.65;4.10;;;19.30;54.00;;;;;;6150645;23;20161;-81
2021/05/31 06:29:12;;;;;;;6.13;4.13;;;19.30;53.80;;;;;;6174017;23;20526;-81
2021/05/31 06:31:37;;;;;;;6.10;3.95;;;19.30;53.90;;;;;;6150680;23;20147;-81
2021/05/31 06:34:04;;;;;;;6.03;4.60;;;19.30;54.60;;;;;;6126846;23;20202;-81
2021/05/31 06:36:39;;;;;;;4.32;3.67;;;19.30;54.00;;;;;;6125285;23;20686;-81
2021/05/31 06:39:07;;;;;;;5.32;3.90;;;19.30;53.90;;;;;;6152125;23;20197;-82
2021/05/31 06:41:35;;;;;;;4.80;4.18;;;19.30;53.80;;;;;;6151153;23;20183;-81
2021/05/31 06:44:01;;;;;;;5.03;4.15;;;19.30;53.90;;;;;;6126032;23;20532;-81
2021/05/31 06:46:28;;;;;;;4.47;3.75;;;19.30;53.70;;;;;;6150950;23;20186;-81
2021/05/31 06:48:54;;;;;;;4.93;4.18;;;19.30;53.20;;;;;;6150297;23;20210;-81
2021/05/31 06:51:24;;;;;;;4.80;3.97;;;19.40;53.40;;;;;;6149380;23;20174;-82
2021/05/31 06:53:55;;;;;;;5.25;4.63;;;19.40;53.30;;;;;;6148146;23;20429;-84
2021/05/31 06:56:23;;;;;;;5.30;4.45;;;19.40;53.20;;;;;;6122162;23;20467;-84
2021/05/31 06:58:56;;;;;;;4.80;4.10;;;19.40;53.20;;;;;;6122504;23;20175;-82
2021/05/31 07:01:25;;;;;;;4.93;3.95;;;19.40;53.30;;;;;;6198028;23;20138;-81
2021/05/31 07:03:50;;;;;;;5.40;4.20;;;19.30;53.20;;;;;;6081378;23;20149;-81
2021/05/31 07:06:24;;;;;;;6.03;4.20;;;19.30;53.20;;;;;;6054424;23;20231;-82
2021/05/31 07:08:58;;;;;;;4.63;4.13;;;19.30;53.20;;;;;;6032261;23;20201;-84
2021/05/31 07:11:24;;;;;;;4.80;4.20;;;19.40;53.30;;;;;;6104838;23;20133;-82
2021/05/31 07:13:57;;;;;;;6.30;4.65;;;19.40;53.00;;;;;;6084704;23;20149;-82
2021/05/31 07:16:23;;;;;;;9.02;4.53;;;19.40;53.00;;;;;;6038342;23;20148;-83
2021/05/31 07:18:49;;;;;;;4.95;4.15;;;19.40;53.10;;;;;;6059841;23;20188;-82
2021/05/31 07:21:26;;;;;;;5.78;4.13;;;19.40;53.00;;;;;;6085328;23;20176;-83
2021/05/31 07:23:54;;;;;;;5.70;4.47;;;19.40;52.90;;;;;;6105904;23;20148;-82
2021/05/31 07:26:20;;;;;;;4.65;4.15;;;19.40;52.90;;;;;;6058105;23;20333;-84
2021/05/31 07:28:48;;;;;;;7.03;4.20;;;19.40;53.00;;;;;;6032439;23;20156;-80
2021/05/31 07:31:19;;;;;;;7.13;4.80;;;19.40;52.90;;;;;;6056380;23;20132;-83
2021/05/31 07:33:57;;;;;;;5.68;4.28;;;19.40;52.80;;;;;;6089494;23;20193;-82
2021/05/31 07:36:38;;;;;;;10.82;4.55;;;19.40;52.90;;;;;;6102929;23;20173;-84
2021/05/31 07:39:07;;;;;;;8.82;5.00;;;19.40;52.90;;;;;;6108403;23;20204;-81
2021/05/31 07:41:44;;;;;;;13.45;4.70;;;19.40;52.90;;;;;;6061864;23;20153;-81
2021/05/31 07:44:10;;;;;;;11.90;4.97;;;19.40;53.00;;;;;;6061549;23;20204;-81
2021/05/31 07:46:48;;;;;;;;;;;;;;;;;;;;;
2021/05/31 07:49:19;;;;;;;12.13;5.20;;;19.40;52.90;;;;;;6028310;23;20181;-83
2021/05/31 07:51:55;;;;;;;8.90;4.80;;;19.40;53.00;;;;;;6025921;23;20182;-82
2021/05/31 07:54:25;;;;;;;11.43;5.07;;;19.40;53.00;;;;;;6028779;23;20129;-82
2021/05/31 07:57:03;;;;;;;15.20;5.07;;;19.40;53.00;;;;;;5998820;23;20154;-82
2021/05/31 07:59:35;;;;;;;7.80;4.40;;;19.50;53.00;;;;;;5997397;23;20166;-82
2021/05/31 08:02:21;;;;;;;9.52;4.85;;;19.50;53.00;;;;;;5909267;24;20168;-84
2021/05/31 08:05:09;;;;;;;8.55;4.63;;;19.50;53.10;;;;;;5913843;24;20167;-82
2021/05/31 08:07:46;;;;;;;12.75;4.82;;;19.50;53.10;;;;;;5935331;24;20195;-81
2021/05/31 08:10:19;;;;;;;17.70;5.18;;;19.50;53.10;;;;;;5937952;24;20186;-82
2021/05/31 08:12:47;;;;;;;15.10;5.15;;;19.50;53.10;;;;;;5876221;24;20283;-82
2021/05/31 08:15:16;;;;;;;25.48;6.30;;;19.50;53.00;;;;;;5853209;24;20166;-84
2021/05/31 08:17:42;;;;;;;12.45;5.20;;;19.50;53.00;;;;;;5891166;24;20238;-82
2021/05/31 08:20:08;;;;;;;30.35;6.30;;;19.50;53.00;;;;;;5903744;24;20153;-83
2021/05/31 08:22:34;;;;;;;34.85;6.75;;;19.50;53.00;;;;;;5904941;24;20199;-82
2021/05/31 08:25:03;;;;;;;36.58;6.93;;;19.40;53.20;;;;;;5907802;24;20149;-80
2021/05/31 08:27:30;;;;;;;12.18;5.10;;;19.50;53.30;;;;;;5907561;24;20524;-82
2021/05/31 08:29:57;;;;;;;17.85;5.65;;;19.60;53.20;;;;;;5932213;24;20186;-82
2021/05/31 08:32:24;;;;;;;17.30;5.00;;;19.50;53.00;;;;;;5918511;24;20153;-82
2021/05/31 08:34:51;;;;;;;22.85;5.97;;;19.60;53.10;;;;;;5939693;24;20278;-83
2021/05/31 08:37:28;;;;;;;20.95;6.38;;;19.50;53.00;;;;;;5964088;24;20203;-81
2021/05/31 08:39:57;;;;;;;26.90;5.93;;;19.50;53.30;;;;;;5908701;24;20620;-82
2021/05/31 08:42:37;;;;;;;26.25;5.80;;;19.50;53.30;;;;;;5910167;24;20198;-83
2021/05/31 08:45:04;;;;;;;17.70;6.10;;;19.60;53.30;;;;;;5886304;24;20164;-83
2021/05/31 08:47:30;;;;;;;24.92;5.95;;;19.60;53.20;;;;;;5949884;24;20159;-82
2021/05/31 08:49:56;;;;;;;18.30;6.00;;;19.60;53.50;;;;;;5991189;23;20182;-82
2021/05/31 08:52:26;;;;;;;22.95;6.07;;;19.60;53.30;;;;;;5978477;23;20146;-82
2021/05/31 10:31:27;;;;;;;13.60;5.47;;;19.60;53.40;;;;;;6168211;23;20272;-82
2021/05/31 10:33:58;;;;;;;14.27;5.75;;;19.70;53.40;;;;;;6148597;23;20214;-85
2021/05/31 10:36:24;;;;;;;17.65;6.07;;;19.60;53.30;;;;;;6124746;23;20134;-84
2021/05/31 10:38:51;;;;;;;15.27;5.38;;;19.60;53.30;;;;;;6148867;23;20163;-83
2021/05/31 10:41:20;;;;;;;13.38;5.13;;;19.60;53.50;;;;;;6119152;23;20139;-85
2021/05/31 10:43:54;;;;;;;10.82;5.40;;;19.60;53.40;;;;;;6169382;23;20154;-84
2021/05/31 10:46:29;;;;;;;11.32;5.43;;;19.60;53.30;;;;;;6147977;23;20218;-83
2021/05/31 10:49:05;;;;;;;13.70;5.60;;;19.60;53.40;;;;;;6125220;23;20143;-83
2021/05/31 10:51:36;;;;;;;14.75;5.40;;;19.60;53.30;;;;;;6101333;23;20154;-84
2021/05/31 10:54:08;;;;;;;13.70;5.10;;;19.60;53.40;;;;;;6124631;23;20498;-84
2021/05/31 10:56:38;;;;;;;12.95;5.10;;;19.70;53.10;;;;;;6149309;23;20127;-83
2021/05/31 10:59:07;;;;;;;15.82;5.28;;;19.70;53.30;;;;;;6076648;23;20221;-83
2021/05/31 11:01:42;;;;;;;16.60;5.68;;;19.70;53.90;;;;;;6124474;23;20610;-84
2021/05/31 11:04:22;;;;;;;14.43;5.55;;;19.80;53.00;;;;;;6149580;23;20157;-83
2021/05/31 11:07:04;;;;;;;13.60;5.95;;;19.70;53.30;;;;;;6148194;23;20182;-82
2021/05/31 11:09:34;;;;;;;13.13;5.38;;;19.70;53.30;;;;;;6127788;23;20150;-82
2021/05/31 11:12:05;;;;;;;14.43;5.50;;;19.70;53.20;;;;;;6098992;23;20154;-83
2021/05/31 11:14:40;;;;;;;14.95;5.13;;;19.80;53.00;;;;;;6124072;23;20214;-83
2021/05/31 11:17:14;;;;;;;13.15;5.88;;;19.70;53.00;;;;;;6124453;23;20219;-84
2021/05/31 11:20:09;;;;;;;14.88;5.75;;;19.70;53.00;;;;;;6101024;23;20151;-82
2021/05/31 11:22:37;;;;;;;17.42;5.70;;;19.80;53.00;;;;;;6130678;23;20475;-84
2021/05/31 11:25:08;;;;;;;13.48;5.00;;;19.80;53.00;;;;;;6131251;23;20181;-84
2021/05/31 11:27:38;;;;;;;9.20;5.38;;;19.80;52.90;;;;;;6104001;23;20155;-84
2021/05/31 11:30:22;;;;;;;9.40;4.93;;;19.70;53.00;;;;;;6102323;23;20177;-85
2021/05/31 11:33:18;;;;;;;;;;;;;;;;;;;;;
2021/05/31 11:36:05;;;;;;;;;;;;;;;;;;;;;
2021/05/31 11:39:24;;;;;;;15.60;5.13;;;19.70;53.10;;;;;;5957729;23;20725;-84
2021/05/31 11:42:39;;;;;;;;;;;;;;;;;;;;;
2021/05/31 11:45:34;;;;;;;13.50;5.28;;;19.80;52.90;;;;;;5945409;24;20156;-84
2021/05/31 11:48:29;;;;;;;11.10;5.38;;;19.80;52.80;;;;;;5936676;24;20157;-84
2021/05/31 11:51:25;;;;;;;9.85;5.07;;;19.80;53.00;;;;;;5887055;24;20238;-85
2021/05/31 11:54:30;;;;;;;;;;;;;;;;;;;;;
2021/05/31 11:57:24;;;;;;;;;;;;;;;;;;;;;
2021/05/31 12:00:00;;;;;;;16.80;5.45;;;19.80;52.80;;;;;;5838391;24;20198;-84
2021/05/31 12:02:33;;;;;;;9.90;5.13;;;19.80;52.80;;;;;;5921113;24;20163;-84
2021/05/31 12:05:28;;;;;;;10.45;4.95;;;19.80;52.50;;;;;;5886623;24;20164;-85
2021/05/31 12:08:13;;;;;;;;;;;;;;;;;;;;;
2021/05/31 12:11:27;;;;;;;12.15;4.93;;;19.80;52.90;;;;;;5938381;24;20517;-84
2021/05/31 12:14:19;;;;;;;11.18;4.72;;;19.80;52.60;;;;;;5953949;24;20163;-84
2021/05/31 12:17:04;;;;;;;8.52;4.88;;;19.90;52.50;;;;;;5959882;24;20190;-84
2021/05/31 12:19:38;;;;;;;12.02;4.93;;;19.90;52.50;;;;;;5950767;23;20176;-82
2021/05/31 12:22:17;;;;;;;9.52;4.88;;;19.90;52.50;;;;;;6010416;23;20149;-83
2021/05/31 12:25:22;;;;;;;15.05;5.18;;;19.90;52.60;;;;;;6011872;23;20161;-85
2021/05/31 12:27:56;;;;;;;10.20;4.90;;;19.90;52.60;;;;;;6048363;23;20237;-85
2021/05/31 12:30:56;;;;;;;10.88;4.90;;;19.80;52.50;;;;;;6072196;23;20158;-85
2021/05/31 12:34:21;;;;;;;10.25;5.18;;;19.80;52.30;;;;;;5984779;23;20698;-87
2021/05/31 12:37:01;;;;;;;7.25;4.78;;;19.90;52.60;;;;;;5999828;23;20507;-85
2021/05/31 12:39:49;;;;;;;7.82;4.80;;;19.70;52.60;;;;;;6020967;23;20230;-85
2021/05/31 12:42:56;;;;;;;12.80;5.50;;;19.70;52.60;;;;;;5966620;24;20182;-87
2021/05/31 12:46:00;;;;;;;10.52;4.80;;;19.80;52.40;;;;;;5912920;24;20153;-86
2021/05/31 12:48:31;;;;;;;8.35;5.00;;;19.80;52.80;;;;;;5834573;24;20159;-86
2021/05/31 12:51:12;;;;;;;8.85;4.93;;;19.80;52.70;;;;;;5856299;24;20242;-85
2021/05/31 12:53:42;;;;;;;9.23;4.72;;;19.80;52.30;;;;;;5876668;24;20187;-85
2021/05/31 12:56:18;;;;;;;8.52;4.85;;;19.80;52.30;;;;;;5837696;24;20162;-85
2021/05/31 12:58:51;;;;;;;8.27;4.97;;;19.80;52.80;;;;;;5862196;24;20210;-87
2021/05/31 13:01:40;;;;;;;7.10;5.00;;;19.80;52.60;;;;;;5815269;24;20195;-86
2021/05/31 13:04:07;;;;;;;10.40;4.80;;;19.80;52.30;;;;;;5920019;24;20137;-86
2021/05/31 13:06:38;;;;;;;10.05;4.65;;;19.80;52.20;;;;;;5876703;24;20185;-86
2021/05/31 13:09:09;;;;;;;10.55;5.43;;;19.90;52.20;;;;;;5887871;24;20158;-85
2021/05/31 13:11:45;;;;;;;10.07;5.13;;;19.90;52.10;;;;;;5881747;24;20747;-84
2021/05/31 13:14:22;;;;;;;10.02;4.72;;;19.90;52.30;;;;;;5891081;24;20160;-84
2021/05/31 13:16:59;;;;;;;7.78;4.70;;;19.90;52.40;;;;;;5932935;24;20163;-85
2021/05/31 13:19:28;;;;;;;5.95;4.45;;;19.90;52.30;;;;;;5980975;23;20651;-85
2021/05/31 13:22:01;;;;;;;8.75;4.88;;;19.90;52.40;;;;;;5971070;24;20159;-85
2021/05/31 13:24:28;;;;;;;9.50;4.85;;;19.80;52.40;;;;;;5970752;24;20250;-86
2021/05/31 13:26:58;;;;;;;10.05;5.13;;;19.80;52.60;;;;;;6022706;23;20154;-86
2021/05/31 13:29:24;;;;;;;6.38;4.22;;;19.80;52.60;;;;;;5997272;23;20177;-85
2021/05/31 13:31:51;;;;;;;9.27;4.78;;;19.90;52.10;;;;;;5977661;23;20189;-86
2021/05/31 13:34:20;;;;;;;6.00;4.72;;;19.90;52.10;;;;;;6027137;23;20194;-86
2021/05/31 13:36:46;;;;;;;6.40;4.65;;;19.90;52.10;;;;;;6023917;23;20155;-85
2021/05/31 13:39:18;;;;;;;8.57;4.13;;;19.90;51.80;;;;;;6027937;23;20286;-85
2021/05/31 13:41:49;;;;;;;8.93;4.70;;;20.00;51.90;;;;;;6024059;23;20154;-85
2021/05/31 13:44:17;;;;;;;7.60;4.57;;;20.00;52.00;;;;;;6025037;23;20165;-84
2021/05/31 13:46:56;;;;;;;8.70;4.68;;;20.00;52.00;;;;;;6062157;23;20523;-86
2021/05/31 13:49:27;;;;;;;6.28;4.00;;;20.00;51.70;;;;;;6019506;23;20152;-86
2021/05/31 13:51:55;;;;;;;8.88;4.60;;;20.10;51.40;;;;;;6018390;23;20157;-85
2021/05/31 13:54:24;;;;;;;9.50;5.00;;;20.10;51.40;;;;;;6094902;23;20129;-86
2021/05/31 13:56:54;;;;;;;6.88;4.35;;;20.10;51.80;;;;;;6070285;23;20153;-84
2021/05/31 13:59:19;;;;;;;11.60;4.53;;;20.00;51.80;;;;;;6067555;23;20671;-86
2021/05/31 14:02:07;;;;;;;7.70;4.78;;;19.90;51.80;;;;;;6070335;23;20145;-87
2021/05/31 14:04:51;;;;;;;9.10;4.70;;;19.90;52.10;;;;;;6055938;23;20154;-85
2021/05/31 14:07:21;;;;;;;7.38;4.40;;;19.90;52.10;;;;;;6032958;23;20157;-85
2021/05/31 14:09:49;;;;;;;7.00;4.75;;;19.90;52.10;;;;;;6031189;23;20169;-85
2021/05/31 14:12:21;;;;;;;6.35;4.45;;;19.90;52.20;;;;;;5992762;23;20154;-85
2021/05/31 14:14:55;;;;;;;6.63;4.60;;;19.90;52.20;;;;;;6030479;23;20150;-85
2021/05/31 14:17:33;;;;;;;7.50;4.55;;;20.00;52.10;;;;;;6030300;23;20224;-85
2021/05/31 14:20:06;;;;;;;7.22;4.10;;;20.00;51.70;;;;;;6028687;23;20154;-84
2021/05/31 14:22:33;;;;;;;7.18;4.15;;;20.00;51.90;;;;;;6026811;23;20521;-84
2021/05/31 14:28:42;;;;;;;7.25;4.50;;;20.10;51.70;;;;;;6050881;23;20182;-84
2021/05/31 14:31:13;;;;;;;9.25;4.57;;;20.00;51.70;;;;;;6020479;23;20155;-85
2021/05/31 14:33:49;;;;;;;6.45;3.53;;;20.00;51.40;;;;;;5993179;24;20155;-85
2021/05/31 14:36:15;;;;;;;4.20;3.70;;;20.00;51.40;;;;;;6015089;23;20239;-85
2021/05/31 14:38:51;;;;;;;5.43;3.72;;;19.90;51.40;;;;;;6022908;23;20187;-84
2021/05/31 14:41:23;;;;;;;9.75;4.32;;;19.90;51.30;;;;;;5972370;24;20155;-85
2021/05/31 14:43:52;;;;;;;6.20;4.03;;;19.90;51.70;;;;;;6012545;23;20155;-85
2021/05/31 14:46:18;;;;;;;7.38;4.18;;;19.90;51.30;;;;;;5976360;24;20634;-83
2021/05/31 14:49:13;;;;;;;5.25;3.58;;;19.90;51.00;;;;;;5993522;24;20238;-83
2021/05/31 14:51:41;;;;;;;5.00;3.97;;;19.90;50.90;;;;;;5969363;24;20170;-85
2021/05/31 14:54:15;;;;;;;8.77;4.25;;;20.00;50.90;;;;;;5992462;23;20238;-85
2021/05/31 14:56:55;;;;;;;7.03;3.83;;;20.00;51.30;;;;;;5968790;24;20164;-85
2021/05/31 14:59:26;;;;;;;5.80;3.67;;;19.90;50.70;;;;;;5994802;24;20632;-85
2021/05/31 15:02:01;;;;;;;5.80;3.63;;;19.90;50.80;;;;;;6012112;23;20150;-85
2021/05/31 15:04:27;;;;;;;4.80;3.50;;;19.90;51.10;;;;;;5955756;24;20159;-85
2021/05/31 15:06:59;;;;;;;7.28;3.83;;;19.80;51.20;;;;;;5966715;24;20706;-86
2021/05/31 15:09:31;;;;;;;5.82;3.72;;;19.80;51.30;;;;;;5968517;24;20168;-86
2021/05/31 15:12:03;;;;;;;5.57;3.70;;;19.80;51.40;;;;;;5969184;24;20167;-85
2021/05/31 15:14:38;;;;;;;6.03;3.72;;;19.80;51.40;;;;;;5945152;24;20238;-87